Time;durP1;ratioP1;P1;durP2;ratioP2;P2;SDS_P1;SDS_P2;PMS_P1;PMS_P2;Temp;Humidity;BMP_temperature;BMP_pressure;BME280_temperature;BME280_humidity;BME280_pressure;Samples;Min_cycle;Max_cycle;Signal;HPM_P1;HPM_P2
2022/08/17 00:01:54;;;;;;;29.73;21.65;;;21.00;99.90;;;;;;5014764;28;20042;-93
2022/08/17 00:04:20;;;;;;;27.48;24.60;;;21.10;99.90;;;;;;5014019;28;20447;-93
2022/08/17 00:06:45;;;;;;;26.58;23.77;;;21.10;99.90;;;;;;5011426;28;20033;-94
2022/08/17 00:09:11;;;;;;;28.33;25.17;;;21.20;99.90;;;;;;5015459;28;20029;-93
2022/08/17 00:11:40;;;;;;;28.75;23.63;;;21.30;99.90;;;;;;5014817;28;20092;-93
2022/08/17 00:14:10;;;;;;;26.17;23.40;;;21.30;99.90;;;;;;5013621;28;20042;-93
2022/08/17 00:16:43;;;;;;;27.77;23.08;;;21.30;99.90;;;;;;5003652;28;20076;-93
2022/08/17 00:19:12;;;;;;;26.02;23.30;;;21.40;99.90;;;;;;5009605;28;20144;-92
2022/08/17 00:21:42;;;;;;;26.23;23.42;;;21.40;99.90;;;;;;5014447;28;20050;-92
2022/08/17 00:24:08;;;;;;;30.00;24.08;;;21.50;99.90;;;;;;5015654;28;20028;-92
2022/08/17 00:26:33;;;;;;;29.73;24.85;;;21.40;99.90;;;;;;5014209;28;20057;-93
2022/08/17 00:28:59;;;;;;;27.63;23.80;;;21.50;99.90;;;;;;5002730;28;20529;-92
2022/08/17 00:31:25;;;;;;;29.40;24.25;;;21.50;99.90;;;;;;5021079;28;20022;-92
2022/08/17 00:33:52;;;;;;;29.10;24.67;;;21.50;99.90;;;;;;5013010;28;20030;-94
2022/08/17 00:36:18;;;;;;;29.15;24.27;;;21.50;99.90;;;;;;5006432;28;20436;-93
2022/08/17 00:38:44;;;;;;;27.15;24.25;;;21.50;99.90;;;;;;5015416;28;20049;-92
2022/08/17 00:41:22;;;;;;;27.00;24.23;;;21.50;99.90;;;;;;5012898;28;20477;-93
2022/08/17 00:43:55;;;;;;;27.98;24.48;;;21.50;99.90;;;;;;5012898;28;20022;-94
2022/08/17 00:46:31;;;;;;;27.63;23.35;;;21.50;99.90;;;;;;5014408;28;20167;-94
2022/08/17 00:48:57;;;;;;;27.60;24.60;;;21.40;99.90;;;;;;5009450;28;20026;-94
2022/08/17 00:51:31;;;;;;;27.35;24.48;;;21.40;99.90;;;;;;5014866;28;20033;-91
2022/08/17 00:54:07;;;;;;;27.00;23.77;;;21.30;99.90;;;;;;5016535;28;20029;-91
2022/08/17 00:56:38;;;;;;;26.55;23.85;;;21.30;99.90;;;;;;5016142;28;20030;-91
2022/08/17 00:59:07;;;;;;;28.38;25.17;;;21.30;99.90;;;;;;5021540;28;20105;-91
2022/08/17 01:01:33;;;;;;;30.35;23.88;;;21.30;99.90;;;;;;5012740;28;20105;-91
2022/08/17 01:04:00;;;;;;;26.77;23.98;;;21.20;99.90;;;;;;4998972;28;20037;-93
2022/08/17 01:06:28;;;;;;;28.85;25.20;;;21.20;99.90;;;;;;5014602;28;20086;-92
2022/08/17 01:08:56;;;;;;;26.17;23.20;;;21.20;99.90;;;;;;4997780;28;20026;-92
2022/08/17 01:11:22;;;;;;;27.08;23.27;;;21.20;99.90;;;;;;5015038;28;20072;-93
2022/08/17 01:13:48;;;;;;;27.27;24.35;;;21.20;99.90;;;;;;5000538;28;20026;-92
2022/08/17 01:16:21;;;;;;;30.60;24.33;;;21.20;99.90;;;;;;5018808;28;20038;-93
2022/08/17 01:18:50;;;;;;;26.23;23.33;;;21.20;99.90;;;;;;4997966;28;20030;-92
2022/08/17 01:21:45;;;;;;;29.92;24.90;;;21.20;99.90;;;;;;4997091;28;20080;-93
2022/08/17 01:24:10;;;;;;;25.92;22.48;;;21.20;99.90;;;;;;4996041;28;20128;-93
2022/08/17 01:26:38;;;;;;;26.58;23.55;;;21.20;99.90;;;;;;4999829;28;20336;-92
2022/08/17 01:29:05;;;;;;;27.67;24.75;;;21.20;99.90;;;;;;4991168;28;20033;-92
2022/08/17 01:31:35;;;;;;;27.60;24.05;;;21.20;99.90;;;;;;5019640;28;20037;-92
2022/08/17 01:34:05;;;;;;;25.88;23.13;;;21.20;99.90;;;;;;4995997;28;20037;-92
2022/08/17 01:36:30;;;;;;;26.67;23.92;;;21.10;99.90;;;;;;5005977;28;20076;-93
2022/08/17 01:38:56;;;;;;;28.65;24.52;;;21.10;99.90;;;;;;4998548;28;20452;-92
2022/08/17 01:41:23;;;;;;;28.73;24.48;;;21.10;99.90;;;;;;5002739;28;20026;-92
2022/08/17 01:43:56;;;;;;;29.63;25.55;;;21.10;99.90;;;;;;4996917;28;20110;-93
2022/08/17 01:46:26;;;;;;;29.75;25.38;;;21.00;99.90;;;;;;5021486;28;20021;-92
2022/08/17 01:48:52;;;;;;;27.48;24.52;;;21.00;99.90;;;;;;4990650;28;20038;-92
2022/08/17 01:51:19;;;;;;;30.63;26.13;;;21.00;99.90;;;;;;4995781;28;20034;-92
2022/08/17 01:53:52;;;;;;;29.30;25.25;;;21.00;99.90;;;;;;4997831;28;20022;-93
2022/08/17 01:56:21;;;;;;;30.38;24.88;;;20.90;99.90;;;;;;4998405;28;20087;-93
2022/08/17 01:58:47;;;;;;;28.77;25.25;;;20.90;99.90;;;;;;5014551;28;20045;-94
2022/08/17 02:01:16;;;;;;;26.67;23.13;;;20.90;99.90;;;;;;5015504;28;20030;-91
2022/08/17 02:03:42;;;;;;;27.65;24.42;;;20.80;99.90;;;;;;5014922;28;20521;-93
2022/08/17 02:06:08;;;;;;;26.55;23.63;;;20.70;99.90;;;;;;4996747;28;20025;-94
2022/08/17 02:08:34;;;;;;;28.00;23.88;;;20.70;99.90;;;;;;4997383;28;20029;-93
2022/08/17 02:11:07;;;;;;;27.25;24.33;;;20.70;99.90;;;;;;5016339;28;20038;-94
2022/08/17 02:13:33;;;;;;;28.20;25.15;;;20.60;99.90;;;;;;5014035;28;20034;-95
2022/08/17 02:16:00;;;;;;;28.73;25.35;;;20.60;99.90;;;;;;5014162;28;20068;-93
2022/08/17 02:18:26;;;;;;;29.73;26.63;;;20.60;99.90;;;;;;5013024;28;20053;-93
2022/08/17 02:20:52;;;;;;;26.35;23.63;;;20.60;99.90;;;;;;4997698;28;20026;-93
2022/08/17 02:23:21;;;;;;;26.23;23.63;;;20.60;99.90;;;;;;5013387;28;20029;-93
2022/08/17 02:25:47;;;;;;;27.92;24.58;;;20.60;99.90;;;;;;5013915;28;20026;-93
2022/08/17 02:28:14;;;;;;;26.58;23.83;;;20.60;99.90;;;;;;4985191;28;20040;-91
2022/08/17 02:30:42;;;;;;;30.52;25.20;;;20.60;99.90;;;;;;5015840;28;20053;-93
2022/08/17 02:33:07;;;;;;;27.83;24.88;;;20.60;99.90;;;;;;5013871;28;20085;-94
2022/08/17 02:35:34;;;;;;;30.17;24.35;;;20.50;99.90;;;;;;5002625;28;20046;-93
2022/08/17 02:38:00;;;;;;;28.88;24.38;;;20.50;99.90;;;;;;5020986;28;20094;-92
2022/08/17 02:40:26;;;;;;;28.83;25.52;;;20.40;99.90;;;;;;5011463;28;20053;-93
2022/08/17 02:42:52;;;;;;;30.70;25.92;;;20.40;99.90;;;;;;4996853;28;20097;-93
2022/08/17 02:45:21;;;;;;;30.67;26.05;;;20.40;99.90;;;;;;5011136;28;20030;-93
2022/08/17 02:47:49;;;;;;;28.38;25.42;;;20.30;99.90;;;;;;4999304;28;20026;-93
2022/08/17 02:50:16;;;;;;;29.25;25.15;;;20.30;99.90;;;;;;5000844;28;20036;-94
2022/08/17 02:52:44;;;;;;;29.08;26.00;;;20.20;99.90;;;;;;4999846;28;20033;-92
2022/08/17 02:55:22;;;;;;;30.60;27.25;;;20.20;99.90;;;;;;4996783;28;20030;-93
2022/08/17 02:57:49;;;;;;;32.42;28.25;;;20.20;99.90;;;;;;5018085;28;20026;-94
2022/08/17 03:00:24;;;;;;;29.98;26.88;;;20.20;99.90;;;;;;5005493;28;20025;-93
2022/08/17 03:02:50;;;;;;;29.88;26.60;;;20.20;99.90;;;;;;5007976;28;20046;-91
2022/08/17 03:05:20;;;;;;;29.58;25.92;;;20.10;99.90;;;;;;5018637;28;20405;-92
2022/08/17 03:07:46;;;;;;;30.33;26.63;;;20.10;99.90;;;;;;5017186;28;20022;-93
2022/08/17 03:10:13;;;;;;;30.85;27.67;;;20.00;99.90;;;;;;5018265;28;20492;-93
2022/08/17 03:12:40;;;;;;;33.15;28.55;;;20.10;99.90;;;;;;5017872;28;20099;-93
2022/08/17 03:15:12;;;;;;;30.30;26.00;;;20.00;99.90;;;;;;5017467;28;20045;-93
2022/08/17 03:17:38;;;;;;;30.55;25.33;;;20.00;99.90;;;;;;5016176;28;20056;-94
2022/08/17 03:20:05;;;;;;;28.83;25.70;;;20.00;99.90;;;;;;5011500;28;20093;-93
2022/08/17 03:22:35;;;;;;;29.40;25.20;;;20.00;99.90;;;;;;5010315;28;20473;-92
2022/08/17 03:25:01;;;;;;;27.35;24.63;;;20.00;99.90;;;;;;5013001;28;20034;-93
2022/08/17 03:27:26;;;;;;;29.88;26.65;;;19.90;99.90;;;;;;5029881;28;20117;-93
2022/08/17 03:29:53;;;;;;;30.02;25.92;;;19.90;99.90;;;;;;5032450;28;20386;-92
2022/08/17 03:32:19;;;;;;;29.25;26.10;;;19.80;99.90;;;;;;5016448;28;20068;-94
2022/08/17 03:34:45;;;;;;;30.17;26.48;;;19.80;99.90;;;;;;5015611;28;20073;-93
2022/08/17 03:37:11;;;;;;;30.42;26.25;;;19.90;99.90;;;;;;5013478;28;20077;-94
2022/08/17 03:39:37;;;;;;;31.27;27.98;;;19.80;99.90;;;;;;5016661;28;20030;-95
2022/08/17 03:42:11;;;;;;;30.45;27.23;;;19.70;99.90;;;;;;5016111;28;20030;-94
2022/08/17 03:44:36;;;;;;;31.35;27.25;;;19.80;99.90;;;;;;5011536;28;20033;-93
2022/08/17 03:57:59;;;;;;;29.70;26.50;;;19.80;99.90;;;;;;5016323;28;20065;-93
2022/08/17 04:00:26;;;;;;;30.15;26.80;;;19.90;99.90;;;;;;5003038;28;20440;-94
2022/08/17 04:02:52;;;;;;;31.38;27.27;;;19.90;99.90;;;;;;5010573;28;20605;-92
2022/08/17 04:05:18;;;;;;;29.17;26.13;;;19.90;99.90;;;;;;5006737;28;20056;-85
2022/08/17 04:07:43;;;;;;;33.88;26.42;;;19.90;99.90;;;;;;5006907;28;20562;-85
2022/08/17 04:10:09;;;;;;;32.00;27.50;;;19.80;99.90;;;;;;5013724;28;20034;-85
2022/08/17 04:12:43;;;;;;;30.23;26.92;;;19.90;99.90;;;;;;5011512;28;20026;-85
2022/08/17 04:15:11;;;;;;;29.80;26.67;;;19.90;99.90;;;;;;5012829;28;20042;-84
2022/08/17 04:17:36;;;;;;;29.08;26.08;;;20.00;99.90;;;;;;5002582;28;20053;-84
2022/08/17 04:20:03;;;;;;;30.90;25.60;;;20.00;99.90;;;;;;5013750;28;20079;-84
2022/08/17 04:22:28;;;;;;;27.90;24.98;;;20.00;99.90;;;;;;5011262;28;20496;-85
2022/08/17 04:24:54;;;;;;;29.83;26.65;;;20.00;99.90;;;;;;5004528;28;20116;-85
2022/08/17 04:27:19;;;;;;;30.05;25.92;;;19.90;99.90;;;;;;5007732;28;20109;-85
2022/08/17 04:29:45;;;;;;;28.55;25.48;;;20.00;99.90;;;;;;5003876;28;20022;-83
2022/08/17 04:32:10;;;;;;;29.77;25.95;;;19.90;99.90;;;;;;5012194;28;20061;-83
2022/08/17 04:34:36;;;;;;;30.63;26.15;;;20.00;99.90;;;;;;5013142;28;20084;-83
2022/08/17 04:37:02;;;;;;;30.02;25.75;;;20.00;99.90;;;;;;5014209;28;20113;-83
2022/08/17 04:39:27;;;;;;;28.98;25.83;;;19.90;99.90;;;;;;5028321;28;20037;-83
2022/08/17 04:42:05;;;;;;;29.38;25.23;;;20.00;99.90;;;;;;5007775;28;20033;-84
2022/08/17 04:44:32;;;;;;;28.70;25.23;;;19.90;99.90;;;;;;5012159;28;20064;-84
2022/08/17 04:46:57;;;;;;;26.95;24.10;;;20.00;99.90;;;;;;5012515;28;20053;-84
2022/08/17 04:49:23;;;;;;;29.02;25.95;;;20.00;99.90;;;;;;5008369;28;20026;-83
2022/08/17 04:51:49;;;;;;;29.38;24.67;;;20.00;99.90;;;;;;5022808;28;20457;-84
2022/08/17 04:54:20;;;;;;;27.88;23.50;;;19.90;99.90;;;;;;5008899;28;20478;-84
2022/08/17 04:56:45;;;;;;;26.50;23.70;;;20.00;99.90;;;;;;5012473;28;20516;-83
2022/08/17 04:59:16;;;;;;;26.05;23.25;;;20.00;99.90;;;;;;5009703;28;20026;-84
2022/08/17 05:01:44;;;;;;;25.88;23.25;;;20.10;99.90;;;;;;5008074;28;20093;-83
2022/08/17 05:04:12;;;;;;;27.65;24.77;;;20.10;99.90;;;;;;5016389;28;20120;-84
2022/08/17 05:06:38;;;;;;;26.77;23.65;;;20.10;99.90;;;;;;5012020;28;20021;-84
2022/08/17 05:09:03;;;;;;;29.85;25.00;;;20.20;99.90;;;;;;5013258;28;20113;-84
2022/08/17 05:11:30;;;;;;;26.75;23.10;;;20.20;99.90;;;;;;5019699;28;20385;-84
2022/08/17 05:13:57;;;;;;;27.42;24.52;;;20.30;99.90;;;;;;5014459;28;20036;-84
2022/08/17 05:16:26;;;;;;;26.92;24.08;;;20.30;99.90;;;;;;5012906;28;20512;-84
2022/08/17 05:18:52;;;;;;;27.38;24.48;;;20.30;99.90;;;;;;5024707;28;20405;-84
2022/08/17 05:21:19;;;;;;;29.55;25.92;;;20.40;99.90;;;;;;5009882;28;20112;-84
2022/08/17 05:23:45;;;;;;;26.95;24.08;;;20.40;99.90;;;;;;5015619;28;20100;-84
2022/08/17 05:26:13;;;;;;;27.15;24.08;;;20.40;99.90;;;;;;5015663;28;20461;-84
2022/08/17 05:28:39;;;;;;;25.90;22.98;;;20.50;99.90;;;;;;5015114;28;20527;-84
2022/08/17 05:31:04;;;;;;;25.45;22.80;;;20.50;99.90;;;;;;5013904;28;20034;-84
2022/08/17 05:33:34;;;;;;;25.00;22.40;;;20.50;99.90;;;;;;5013150;28;20049;-84
2022/08/17 05:36:00;;;;;;;24.15;21.63;;;20.60;99.90;;;;;;5010783;28;20088;-84
2022/08/17 05:38:28;;;;;;;27.83;23.05;;;20.60;99.90;;;;;;5009844;28;20435;-84
2022/08/17 05:40:54;;;;;;;24.52;21.90;;;20.70;99.90;;;;;;5002104;28;20029;-84
2022/08/17 05:43:24;;;;;;;25.45;22.70;;;20.60;99.90;;;;;;5009923;28;20024;-84
2022/08/17 05:46:17;;;;;;;22.45;20.02;;;20.70;99.90;;;;;;5024722;28;20027;-93
2022/08/17 05:48:47;;;;;;;25.08;21.30;;;20.70;99.90;;;;;;5036019;28;20107;-92
2022/08/17 05:51:30;;;;;;;23.80;21.20;;;20.70;99.90;;;;;;5020467;28;20065;-93
2022/08/17 05:54:02;;;;;;;26.38;20.42;;;20.70;99.90;;;;;;5016526;28;20040;-93
2022/08/17 05:56:44;;;;;;;22.70;20.17;;;20.80;99.90;;;;;;5022122;28;20041;-92
2022/08/17 05:59:14;;;;;;;24.38;21.27;;;20.80;99.90;;;;;;5034497;28;20312;-94
2022/08/17 06:01:46;;;;;;;25.20;21.88;;;20.80;99.90;;;;;;5013424;28;20037;-94
2022/08/17 06:04:31;;;;;;;22.90;20.15;;;20.90;99.90;;;;;;5016940;28;20033;-94
2022/08/17 06:07:08;;;;;;;26.70;20.50;;;20.90;99.90;;;;;;5011247;28;20022;-94
2022/08/17 06:09:58;;;;;;;23.92;21.17;;;20.90;99.90;;;;;;5016171;28;20041;-94
2022/08/17 06:12:54;;;;;;;24.10;20.42;;;20.90;99.90;;;;;;5022657;28;20021;-94
2022/08/17 06:15:31;;;;;;;22.80;20.42;;;20.90;99.90;;;;;;5013377;28;20477;-94
2022/08/17 06:18:06;;;;;;;21.92;19.63;;;20.90;99.90;;;;;;5022030;28;20060;-95
2022/08/17 06:20:46;;;;;;;25.63;19.90;;;21.00;99.90;;;;;;5020258;28;20505;-95
2022/08/17 06:23:26;;;;;;;25.27;21.13;;;20.90;99.90;;;;;;5020840;28;20048;-92
2022/08/17 06:25:57;;;;;;;23.48;19.77;;;20.90;99.90;;;;;;5031463;28;20485;-91
2022/08/17 06:28:36;;;;;;;23.40;20.17;;;20.90;99.90;;;;;;5022066;28;20121;-93
2022/08/17 06:31:11;;;;;;;25.23;20.85;;;20.90;99.90;;;;;;5020937;28;20030;-92
2022/08/17 06:33:38;;;;;;;20.95;18.70;;;20.90;99.90;;;;;;5019381;28;20052;-93
2022/08/17 06:36:23;;;;;;;26.17;20.40;;;21.00;99.90;;;;;;5019703;28;20036;-93
2022/08/17 06:39:06;;;;;;;25.15;19.95;;;21.00;99.90;;;;;;5018319;28;20097;-93
2022/08/17 06:42:08;;;;;;;21.40;19.23;;;21.00;99.90;;;;;;5015910;28;20136;-93
2022/08/17 06:44:48;;;;;;;21.53;19.33;;;21.10;99.90;;;;;;5020173;28;20039;-93
2022/08/17 06:47:28;;;;;;;22.60;20.30;;;21.20;99.90;;;;;;5015906;28;21267;-93
2022/08/17 06:50:18;;;;;;;22.42;20.02;;;21.30;99.90;;;;;;5036881;28;20112;-92
2022/08/17 06:52:51;;;;;;;35.90;19.42;;;21.40;99.90;;;;;;5029344;28;20132;-93
2022/08/17 06:55:33;;;;;;;21.15;19.05;;;21.50;99.90;;;;;;5037700;28;20029;-93
2022/08/17 06:58:04;;;;;;;24.73;21.15;;;21.60;99.90;;;;;;5006416;28;20026;-93
2022/08/17 07:00:35;;;;;;;23.73;19.23;;;21.70;99.90;;;;;;5029148;28;20053;-94
2022/08/17 07:03:06;;;;;;;20.05;17.95;;;21.70;99.90;;;;;;5020084;28;20509;-93
2022/08/17 07:05:35;;;;;;;24.92;21.45;;;21.80;99.90;;;;;;5016375;28;20035;-93
2022/08/17 07:08:13;;;;;;;26.48;21.05;;;21.80;99.90;;;;;;5022480;28;20104;-94
2022/08/17 07:10:46;;;;;;;22.20;19.85;;;21.80;99.90;;;;;;5039242;28;20025;-93
2022/08/17 07:13:36;;;;;;;25.33;19.65;;;21.80;99.90;;;;;;5035682;28;20021;-93
2022/08/17 07:16:23;;;;;;;20.80;18.60;;;21.90;99.90;;;;;;5034327;28;20134;-93
2022/08/17 07:18:51;;;;;;;23.83;19.77;;;21.90;99.90;;;;;;5014686;28;20022;-93
2022/08/17 07:21:27;;;;;;;21.92;19.63;;;22.00;99.90;;;;;;5017758;28;20049;-92
2022/08/17 07:24:27;;;;;;;22.05;19.73;;;22.00;99.90;;;;;;5015183;28;20033;-90
2022/08/17 07:27:14;;;;;;;27.30;19.73;;;22.00;99.90;;;;;;5037843;28;20026;-94
2022/08/17 07:29:53;;;;;;;21.10;18.85;;;22.00;99.90;;;;;;5030050;28;20034;-94
2022/08/17 07:32:30;;;;;;;21.65;19.00;;;22.10;99.90;;;;;;5013684;28;20037;-93
2022/08/17 07:35:07;;;;;;;28.65;22.20;;;22.20;99.90;;;;;;5034353;28;20041;-93
2022/08/17 07:37:35;;;;;;;22.23;19.92;;;22.30;99.90;;;;;;5009972;28;20095;-93
2022/08/17 07:40:20;;;;;;;24.75;22.15;;;22.30;99.90;;;;;;5035577;28;20017;-91
2022/08/17 07:43:04;;;;;;;27.58;21.00;;;22.30;99.90;;;;;;5037954;28;20056;-91
2022/08/17 07:48:19;;;;;;;25.52;21.10;;;22.40;99.90;;;;;;5037834;28;20040;-92
2022/08/17 07:50:46;;;;;;;27.88;22.05;;;22.30;99.90;;;;;;5035674;28;20079;-91
2022/08/17 07:53:18;;;;;;;24.55;21.30;;;22.40;99.90;;;;;;5020175;28;20022;-91
2022/08/17 07:55:44;;;;;;;23.95;21.05;;;22.40;99.90;;;;;;5019656;28;20041;-92
2022/08/17 07:58:18;;;;;;;25.67;22.25;;;22.40;99.90;;;;;;5017003;28;20386;-91
2022/08/17 08:00:51;;;;;;;25.38;22.40;;;22.40;99.90;;;;;;5009864;28;20029;-91
2022/08/17 08:03:25;;;;;;;27.58;21.60;;;22.40;99.90;;;;;;5018465;28;20069;-92
2022/08/17 08:06:00;;;;;;;24.13;21.50;;;22.50;99.90;;;;;;5018711;28;20021;-91
2022/08/17 08:08:41;;;;;;;23.95;20.90;;;22.50;99.90;;;;;;5020343;28;20025;-92
2022/08/17 08:11:14;;;;;;;27.88;24.25;;;22.60;99.90;;;;;;5018684;28;20501;-90
2022/08/17 08:13:42;;;;;;;23.65;20.20;;;22.70;99.90;;;;;;5032880;28;20037;-91
2022/08/17 08:16:16;;;;;;;25.23;21.17;;;22.70;99.90;;;;;;5019661;28;20106;-91
2022/08/17 08:18:47;;;;;;;21.70;19.40;;;22.70;99.90;;;;;;5019639;28;20033;-91
2022/08/17 08:21:34;;;;;;;22.70;20.15;;;22.80;99.90;;;;;;5018359;28;20030;-91
2022/08/17 08:24:13;;;;;;;22.45;20.00;;;22.90;99.90;;;;;;5034706;28;20025;-90
2022/08/17 08:26:46;;;;;;;24.52;20.13;;;23.00;99.90;;;;;;5033986;28;20109;-92
2022/08/17 08:29:17;;;;;;;24.40;20.50;;;23.10;99.90;;;;;;5019492;28;20025;-91
2022/08/17 08:32:10;;;;;;;24.85;22.02;;;23.20;99.90;;;;;;5011791;28;20456;-92
2022/08/17 08:34:46;;;;;;;30.83;22.38;;;23.20;99.90;;;;;;5020255;28;20112;-91
2022/08/17 08:37:30;;;;;;;23.73;20.88;;;23.20;99.90;;;;;;5012565;28;20120;-92
2022/08/17 08:40:10;;;;;;;23.92;20.88;;;23.30;99.90;;;;;;5017144;28;20025;-91
2022/08/17 08:42:44;;;;;;;43.10;25.27;;;23.20;99.90;;;;;;5035596;28;20481;-87
2022/08/17 08:45:23;;;;;;;31.95;24.50;;;23.10;99.90;;;;;;5030971;28;20033;-88
2022/08/17 08:48:31;;;;;;;33.85;24.95;;;22.80;99.90;;;;;;5035690;28;20030;-87
2022/08/17 08:51:19;;;;;;;42.28;27.10;;;22.50;99.90;;;;;;5016815;28;20059;-87
2022/08/17 08:54:15;;;;;;;38.53;25.48;;;22.10;99.90;;;;;;5032011;28;20017;-91
2022/08/17 08:56:56;;;;;;;39.97;32.63;;;21.70;99.90;;;;;;5018049;28;20482;-86
2022/08/17 08:59:50;;;;;;;43.30;34.97;;;21.30;99.90;;;;;;5034528;28;20026;-85
2022/08/17 09:02:27;;;;;;;39.00;32.97;;;20.80;99.90;;;;;;5022443;28;20061;-85
2022/08/17 09:05:14;;;;;;;36.53;32.33;;;20.50;99.90;;;;;;5034272;28;20026;-85
2022/08/17 09:07:57;;;;;;;40.85;35.50;;;20.30;99.90;;;;;;5014730;28;20064;-86
2022/08/17 09:10:33;;;;;;;48.97;36.88;;;20.30;99.90;;;;;;5015936;28;20056;-86
2022/08/17 09:13:01;;;;;;;48.05;36.70;;;20.20;99.90;;;;;;5027390;28;20047;-87
2022/08/17 09:15:38;;;;;;;48.58;38.28;;;20.30;99.90;;;;;;5014580;28;20037;-86
2022/08/17 09:18:22;;;;;;;45.60;37.95;;;20.40;99.90;;;;;;5033537;28;20478;-87
2022/08/17 09:20:56;;;;;;;44.35;37.13;;;20.60;99.90;;;;;;5033847;28;20061;-86
2022/08/17 09:23:31;;;;;;;44.95;37.45;;;20.70;99.90;;;;;;5017082;28;20107;-86
2022/08/17 09:26:05;;;;;;;44.28;36.55;;;21.00;99.90;;;;;;5013427;28;20021;-87
2022/08/17 09:28:36;;;;;;;41.28;34.80;;;21.20;99.90;;;;;;5028891;28;20029;-86
2022/08/17 09:31:14;;;;;;;42.22;34.33;;;21.50;99.90;;;;;;5014928;28;20021;-86
2022/08/17 09:33:44;;;;;;;39.75;32.78;;;21.70;99.90;;;;;;5026166;28;20039;-86
2022/08/17 09:36:30;;;;;;;37.08;31.50;;;22.00;99.90;;;;;;5033126;28;20030;-87
2022/08/17 09:39:26;;;;;;;33.50;29.65;;;22.20;99.90;;;;;;5016342;28;20037;-87
2022/08/17 09:42:18;;;;;;;34.85;31.05;;;22.40;99.90;;;;;;5015866;28;20370;-87
2022/08/17 09:45:10;;;;;;;30.70;27.35;;;22.60;99.90;;;;;;4996605;28;20044;-86
2022/08/17 09:47:54;;;;;;;33.00;26.88;;;22.80;99.90;;;;;;5020858;28;20064;-87
2022/08/17 09:50:44;;;;;;;30.10;26.85;;;22.90;99.90;;;;;;5034363;28;20061;-87
2022/08/17 09:53:10;;;;;;;30.25;26.67;;;22.90;99.90;;;;;;5020003;28;20064;-87
2022/08/17 09:56:17;;;;;;;32.90;27.58;;;23.00;99.90;;;;;;5021369;28;20033;-87
2022/08/17 09:59:15;;;;;;;30.13;26.80;;;23.00;99.90;;;;;;4963124;28;20436;-87
2022/08/17 10:02:11;;;;;;;29.77;25.65;;;23.10;99.90;;;;;;5011102;28;20051;-87
2022/08/17 10:04:53;;;;;;;30.45;25.35;;;23.20;99.90;;;;;;4999215;28;20046;-87
2022/08/17 10:07:41;;;;;;;31.52;25.52;;;23.20;99.90;;;;;;4984093;28;20079;-87
2022/08/17 10:10:24;;;;;;;31.67;26.98;;;23.30;99.90;;;;;;4978600;28;20046;-87
2022/08/17 10:13:08;;;;;;;29.83;26.75;;;23.30;99.90;;;;;;4995371;28;20087;-86
2022/08/17 10:15:59;;;;;;;28.90;25.95;;;23.50;99.90;;;;;;5007132;28;20077;-87
2022/08/17 10:18:47;;;;;;;27.55;24.80;;;23.50;99.90;;;;;;4991315;28;20084;-86
2022/08/17 10:27:17;;;;;;;29.63;26.52;;;23.40;99.90;;;;;;5014047;28;20025;-87
2022/08/17 10:29:54;;;;;;;29.10;25.90;;;23.30;99.90;;;;;;5003319;28;20045;-87
2022/08/17 10:32:43;;;;;;;30.80;27.60;;;23.20;99.90;;;;;;4977032;28;20046;-87
2022/08/17 10:35:35;;;;;;;30.67;27.27;;;23.20;99.90;;;;;;4996168;28;20037;-87
2022/08/17 10:38:19;;;;;;;31.40;28.02;;;23.10;99.90;;;;;;5012752;28;20073;-86
2022/08/17 10:41:20;;;;;;;31.92;28.35;;;23.00;99.90;;;;;;4994400;28;20026;-87
2022/08/17 10:43:52;;;;;;;30.10;27.02;;;23.00;99.90;;;;;;4985105;28;20037;-85
2022/08/17 10:46:50;;;;;;;33.53;30.08;;;23.00;99.90;;;;;;4995539;28;20045;-86
2022/08/17 10:49:19;;;;;;;33.03;29.67;;;22.90;99.90;;;;;;4994774;28;20034;-86
2022/08/17 10:51:57;;;;;;;32.30;28.80;;;22.90;99.90;;;;;;4996362;28;20030;-87
2022/08/17 10:54:47;;;;;;;31.33;28.02;;;23.00;99.90;;;;;;4996375;28;20486;-86
2022/08/17 10:57:38;;;;;;;33.58;29.92;;;22.90;99.90;;;;;;4996264;28;20428;-87
2022/08/17 11:00:42;;;;;;;33.67;27.98;;;22.90;99.90;;;;;;4994219;28;20080;-87
2022/08/17 11:03:23;;;;;;;31.08;27.75;;;22.80;99.90;;;;;;5007285;28;20137;-86
2022/08/17 11:06:11;;;;;;;31.20;27.98;;;22.70;99.90;;;;;;5014914;28;20026;-86
2022/08/17 11:09:18;;;;;;;31.40;28.13;;;22.60;99.90;;;;;;5015688;28;20045;-86
2022/08/17 11:12:06;;;;;;;31.52;28.13;;;22.40;99.90;;;;;;4994184;28;20088;-86
2022/08/17 11:15:02;;;;;;;33.65;30.27;;;22.20;99.90;;;;;;5001220;28;20092;-86
2022/08/17 11:17:40;;;;;;;33.53;29.92;;;22.10;99.90;;;;;;5014795;28;20438;-86
2022/08/17 11:20:19;;;;;;;36.03;31.50;;;21.90;99.90;;;;;;5015758;28;20030;-86
2022/08/17 11:23:03;;;;;;;33.92;30.05;;;21.80;99.90;;;;;;5017601;28;20026;-86
2022/08/17 11:25:43;;;;;;;32.83;29.20;;;21.60;99.90;;;;;;5014670;28;20083;-86
2022/08/17 11:28:25;;;;;;;31.60;28.15;;;21.50;99.90;;;;;;5008967;28;20359;-85
2022/08/17 11:30:58;;;;;;;31.10;27.58;;;21.40;99.90;;;;;;5016905;28;20032;-87
2022/08/17 11:33:51;;;;;;;32.17;28.02;;;21.30;99.90;;;;;;5015188;28;20366;-86
2022/08/17 11:36:52;;;;;;;33.88;30.10;;;21.30;99.90;;;;;;5013011;28;20038;-87
2022/08/17 11:39:42;;;;;;;31.70;28.27;;;21.30;99.90;;;;;;4975267;28;20037;-86
2022/08/17 11:42:11;;;;;;;35.75;29.73;;;21.30;99.90;;;;;;5029957;28;20060;-86
2022/08/17 11:44:56;;;;;;;38.97;32.17;;;21.30;99.90;;;;;;5010640;28;20037;-86
2022/08/17 11:53:38;;;;;;;31.92;28.40;;;21.60;99.90;;;;;;5009636;28;20497;-86
2022/08/17 11:56:34;;;;;;;29.98;26.88;;;21.60;99.90;;;;;;5015515;28;20034;-86
2022/08/17 11:59:00;;;;;;;32.22;28.83;;;21.60;99.90;;;;;;5012814;28;20037;-86
2022/08/17 12:01:31;;;;;;;31.42;28.13;;;21.60;99.90;;;;;;5009319;28;20026;-86
2022/08/17 12:04:23;;;;;;;30.55;27.30;;;21.60;99.90;;;;;;5015218;28;20084;-86
2022/08/17 12:06:53;;;;;;;;;;;21.70;99.90;;;;;;5015671;28;20050;-86
2022/08/17 12:09:23;;;;;;;26.60;23.70;;;21.70;99.90;;;;;;5015737;28;20369;-86
2022/08/17 12:11:58;;;;;;;28.95;25.88;;;21.80;99.90;;;;;;5016787;28;20056;-86
2022/08/17 12:14:28;;;;;;;28.25;25.00;;;21.80;99.90;;;;;;5014701;28;20057;-86
2022/08/17 12:17:11;;;;;;;27.95;25.02;;;21.80;99.90;;;;;;4997312;28;20037;-86
2022/08/17 12:19:38;;;;;;;27.92;24.95;;;21.90;99.90;;;;;;4996986;28;20029;-85
2022/08/17 12:22:16;;;;;;;28.27;25.02;;;22.00;99.90;;;;;;5014876;28;20084;-86
2022/08/17 12:25:01;;;;;;;26.95;24.23;;;22.00;99.90;;;;;;5015013;28;20026;-86
2022/08/17 12:27:31;;;;;;;26.02;23.38;;;22.00;99.90;;;;;;5030303;28;20026;-86
2022/08/17 12:29:58;;;;;;;24.58;21.90;;;21.90;99.90;;;;;;5013669;28;20021;-86
2022/08/17 12:32:32;;;;;;;25.85;23.10;;;21.80;99.90;;;;;;5014693;28;20061;-86
2022/08/17 12:34:57;;;;;;;25.98;23.27;;;21.70;99.90;;;;;;5014937;28;20099;-86
2022/08/17 12:37:32;;;;;;;25.58;21.55;;;21.60;99.90;;;;;;5023811;28;20473;-87
2022/08/17 12:40:05;;;;;;;24.85;22.25;;;21.60;99.90;;;;;;5014516;28;20033;-87
2022/08/17 12:42:38;;;;;;;24.02;21.58;;;21.50;99.90;;;;;;5014753;28;20087;-87
2022/08/17 12:45:24;;;;;;;24.83;22.33;;;21.50;99.90;;;;;;5014834;28;20080;-87
2022/08/17 12:48:06;;;;;;;23.45;21.05;;;21.50;99.90;;;;;;5009911;28;20026;-86
2022/08/17 12:50:57;;;;;;;24.20;21.63;;;21.50;99.90;;;;;;5013403;28;20029;-87
2022/08/17 12:53:29;;;;;;;23.20;20.75;;;21.60;99.90;;;;;;5014359;28;20628;-86
2022/08/17 12:55:55;;;;;;;;;;;21.60;99.90;;;;;;5014449;28;20517;-87
2022/08/17 12:58:24;;;;;;;25.42;22.73;;;21.60;99.90;;;;;;5014139;28;20388;-82
2022/08/17 13:01:00;;;;;;;25.35;22.83;;;21.60;99.90;;;;;;5012244;28;20042;-84
2022/08/17 13:03:30;;;;;;;25.92;23.13;;;21.70;99.90;;;;;;5013729;28;20121;-83
2022/08/17 13:06:30;;;;;;;25.65;22.95;;;21.80;99.90;;;;;;5033170;28;20041;-83
2022/08/17 13:08:55;;;;;;;26.05;22.40;;;21.80;99.90;;;;;;5030623;28;20026;-84
2022/08/17 13:11:23;;;;;;;26.88;23.75;;;21.90;99.90;;;;;;5011889;28;20037;-85
2022/08/17 13:14:06;;;;;;;27.30;24.48;;;22.00;99.90;;;;;;5017907;28;20026;-85
2022/08/17 13:16:32;;;;;;;24.83;22.15;;;22.00;99.90;;;;;;5017397;28;20044;-85
2022/08/17 13:19:15;;;;;;;25.98;23.38;;;22.00;99.90;;;;;;5016963;28;20071;-85
2022/08/17 13:21:50;;;;;;;25.83;23.27;;;21.90;99.90;;;;;;5017646;28;20392;-85
2022/08/17 13:24:30;;;;;;;31.35;25.30;;;21.80;99.90;;;;;;5033739;28;20512;-86
2022/08/17 13:27:06;;;;;;;27.42;24.52;;;21.90;99.90;;;;;;5016256;28;20028;-85
2022/08/17 13:29:44;;;;;;;27.40;24.08;;;21.80;99.90;;;;;;5015842;28;20026;-85
2022/08/17 13:32:10;;;;;;;27.17;24.20;;;21.70;99.90;;;;;;5016391;28;20132;-85